Main page
METAR-TAF:

METAR-TAF

Airports :

Porto Santo Airport

Porto Santo, Portugal

latitude: 33-04N, longitude: 016-21W, elevation: 97 m

Current weather observation

The report was made 33 minutes ago, at 03:00 UTC
Wind 13 kt from the North
Temperature 16°C
Humidity 68%
Pressure 1028 hPa
Visibility 10 km or more
Scattered clouds at a height of 1500 ft
Scattered clouds at a height of 3000 ft

METAR: LPPS 240300Z 35013KT 9999 SCT015 SCT030 16/10 Q1028

Time: 03:33 (03:33 UTC)

Forecast

The report was made 4 hours and 33 minutes ago, at 23:00 UTC
Forecast valid from 24 at 00 UTC to 25 at 06 UTC
Wind 13 kt from the North
Visibility 10 km or more
Scattered clouds at a height of 1500 ft
Temporary
from 24 at 00 UTC to 25 at 06 UTC
Broken clouds at a height of 1500 ft
Probability 40% :
Temporary
from 24 at 00 UTC to 24 at 12 UTC
Wind 15 kt from the North with gusts up to 25 kt

TAF: LPPS 232300Z 2400/2506 35013KT 9999 SCT015 TEMPO 2400/2506 BKN015 PROB40 TEMPO 2400/2412 36015G25KT

Weather observations and forecasts of more than 4000 airports (METAR and TAF reports).

The available stations are represented by yellow and red dots on the map.

Hover mouse over dot to see the name of the station.

Then click to see weather observations and forecasts.

To change the map : click on the green buttons with a black cross to zoom in, on the green button with a dash to zoom out, or on the green arrows for adjacent maps.


METAR-TAF: